sensor_id;sensor_type;location;lat;lon;timestamp;pressure;altitude;pressure_sealevel;temperature;humidity
55679;BME280;41573;51.446;-2.018;2023-07-31T00:00:01;100046.22;;;18.24;100.00
55679;BME280;41573;51.446;-2.018;2023-07-31T00:02:27;100043.22;;;18.27;100.00
55679;BME280;41573;51.446;-2.018;2023-07-31T00:04:52;100048.28;;;18.31;100.00
55679;BME280;41573;51.446;-2.018;2023-07-31T00:07:18;100039.38;;;18.30;100.00
55679;BME280;41573;51.446;-2.018;2023-07-31T00:09:43;100042.69;;;18.24;100.00
55679;BME280;41573;51.446;-2.018;2023-07-31T00:12:08;100028.50;;;18.22;100.00
55679;BME280;41573;51.446;-2.018;2023-07-31T00:14:34;100030.66;;;18.36;100.00
55679;BME280;41573;51.446;-2.018;2023-07-31T00:16:59;100013.84;;;18.42;100.00
55679;BME280;41573;51.446;-2.018;2023-07-31T00:19:25;100010.09;;;18.35;100.00
55679;BME280;41573;51.446;-2.018;2023-07-31T00:21:50;100009.06;;;18.36;100.00
55679;BME280;41573;51.446;-2.018;2023-07-31T00:24:15;100016.91;;;18.48;100.00
55679;BME280;41573;51.446;-2.018;2023-07-31T00:26:41;100024.31;;;18.46;100.00
55679;BME280;41573;51.446;-2.018;2023-07-31T00:29:06;100023.59;;;18.35;100.00
55679;BME280;41573;51.446;-2.018;2023-07-31T00:31:31;100025.69;;;18.50;100.00
55679;BME280;41573;51.446;-2.018;2023-07-31T00:33:57;100030.56;;;18.46;100.00
55679;BME280;41573;51.446;-2.018;2023-07-31T00:36:22;100019.84;;;18.54;100.00
55679;BME280;41573;51.446;-2.018;2023-07-31T00:38:47;100012.88;;;18.43;100.00
55679;BME280;41573;51.446;-2.018;2023-07-31T00:41:14;100008.78;;;18.39;100.00
55679;BME280;41573;51.446;-2.018;2023-07-31T00:43:39;100002.44;;;18.49;100.00
55679;BME280;41573;51.446;-2.018;2023-07-31T00:46:05;100004.88;;;18.34;100.00
55679;BME280;41573;51.446;-2.018;2023-07-31T00:48:31;99994.34;;;18.49;100.00
55679;BME280;41573;51.446;-2.018;2023-07-31T00:50:57;99978.97;;;18.41;100.00
55679;BME280;41573;51.446;-2.018;2023-07-31T00:53:24;99977.94;;;18.42;100.00
55679;BME280;41573;51.446;-2.018;2023-07-31T00:55:50;99981.13;;;18.37;100.00
55679;BME280;41573;51.446;-2.018;2023-07-31T00:58:15;99964.69;;;18.49;100.00
55679;BME280;41573;51.446;-2.018;2023-07-31T01:00:41;99960.28;;;18.39;100.00
55679;BME280;41573;51.446;-2.018;2023-07-31T01:03:06;99965.28;;;18.34;100.00
55679;BME280;41573;51.446;-2.018;2023-07-31T01:05:43;99965.84;;;18.46;100.00
55679;BME280;41573;51.446;-2.018;2023-07-31T01:10:55;99964.06;;;18.55;100.00
55679;BME280;41573;51.446;-2.018;2023-07-31T01:13:21;99969.75;;;18.52;100.00
55679;BME280;41573;51.446;-2.018;2023-07-31T01:15:47;99975.97;;;18.44;100.00
55679;BME280;41573;51.446;-2.018;2023-07-31T01:18:12;99965.66;;;18.39;100.00
55679;BME280;41573;51.446;-2.018;2023-07-31T01:20:39;99957.19;;;18.34;100.00
55679;BME280;41573;51.446;-2.018;2023-07-31T01:28:27;99935.84;;;18.41;100.00
55679;BME280;41573;51.446;-2.018;2023-07-31T01:30:55;99935.69;;;18.42;100.00
55679;BME280;41573;51.446;-2.018;2023-07-31T01:33:23;99927.53;;;18.34;100.00
55679;BME280;41573;51.446;-2.018;2023-07-31T01:35:49;99925.84;;;18.33;100.00
55679;BME280;41573;51.446;-2.018;2023-07-31T01:38:14;99922.19;;;18.42;100.00
55679;BME280;41573;51.446;-2.018;2023-07-31T01:40:41;99929.28;;;18.43;100.00
55679;BME280;41573;51.446;-2.018;2023-07-31T01:43:07;99922.88;;;18.44;100.00
55679;BME280;41573;51.446;-2.018;2023-07-31T01:45:32;99905.53;;;19.16;100.00
55679;BME280;41573;51.446;-2.018;2023-07-31T01:47:58;99920.88;;;18.47;100.00
55679;BME280;41573;51.446;-2.018;2023-07-31T01:50:23;99910.88;;;18.39;100.00
55679;BME280;41573;51.446;-2.018;2023-07-31T01:52:49;99905.31;;;18.40;100.00
55679;BME280;41573;51.446;-2.018;2023-07-31T01:55:14;99904.53;;;18.48;100.00
55679;BME280;41573;51.446;-2.018;2023-07-31T01:57:39;99916.47;;;18.46;100.00
55679;BME280;41573;51.446;-2.018;2023-07-31T02:00:05;99905.50;;;18.39;100.00
55679;BME280;41573;51.446;-2.018;2023-07-31T02:02:31;99914.78;;;18.44;100.00
55679;BME280;41573;51.446;-2.018;2023-07-31T02:04:56;99900.63;;;18.42;100.00
55679;BME280;41573;51.446;-2.018;2023-07-31T02:07:22;99912.69;;;18.56;100.00
55679;BME280;41573;51.446;-2.018;2023-07-31T02:09:47;99901.34;;;18.53;100.00
55679;BME280;41573;51.446;-2.018;2023-07-31T02:12:13;99895.13;;;18.52;100.00
55679;BME280;41573;51.446;-2.018;2023-07-31T02:14:40;99900.97;;;18.39;100.00
55679;BME280;41573;51.446;-2.018;2023-07-31T02:17:05;99894.25;;;18.52;100.00
55679;BME280;41573;51.446;-2.018;2023-07-31T02:19:31;99896.41;;;18.40;100.00
55679;BME280;41573;51.446;-2.018;2023-07-31T02:21:56;99898.00;;;18.51;100.00
55679;BME280;41573;51.446;-2.018;2023-07-31T02:24:21;99898.00;;;18.51;100.00
55679;BME280;41573;51.446;-2.018;2023-07-31T02:26:47;99904.34;;;18.41;100.00
55679;BME280;41573;51.446;-2.018;2023-07-31T02:29:12;99899.66;;;18.52;100.00
55679;BME280;41573;51.446;-2.018;2023-07-31T02:31:38;99902.84;;;18.47;100.00
55679;BME280;41573;51.446;-2.018;2023-07-31T02:34:03;99890.06;;;18.49;100.00
55679;BME280;41573;51.446;-2.018;2023-07-31T02:36:28;99888.56;;;18.55;100.00
55679;BME280;41573;51.446;-2.018;2023-07-31T02:38:54;99884.03;;;18.55;100.00
55679;BME280;41573;51.446;-2.018;2023-07-31T02:41:19;99865.09;;;18.47;100.00
55679;BME280;41573;51.446;-2.018;2023-07-31T02:43:44;99880.78;;;18.52;100.00
55679;BME280;41573;51.446;-2.018;2023-07-31T02:46:10;99879.28;;;18.49;100.00
55679;BME280;41573;51.446;-2.018;2023-07-31T02:48:35;99864.72;;;18.42;100.00
55679;BME280;41573;51.446;-2.018;2023-07-31T02:51:00;99867.47;;;18.50;100.00
55679;BME280;41573;51.446;-2.018;2023-07-31T02:53:26;99861.75;;;18.45;100.00
55679;BME280;41573;51.446;-2.018;2023-07-31T02:55:51;99863.56;;;18.44;100.00
55679;BME280;41573;51.446;-2.018;2023-07-31T02:58:16;99867.31;;;18.52;100.00
55679;BME280;41573;51.446;-2.018;2023-07-31T03:00:43;99865.44;;;18.44;100.00
55679;BME280;41573;51.446;-2.018;2023-07-31T03:03:08;99867.78;;;18.47;100.00
55679;BME280;41573;51.446;-2.018;2023-07-31T03:05:34;99869.16;;;18.51;100.00
55679;BME280;41573;51.446;-2.018;2023-07-31T03:07:59;99867.50;;;18.58;100.00
55679;BME280;41573;51.446;-2.018;2023-07-31T03:10:24;99864.44;;;18.53;100.00
55679;BME280;41573;51.446;-2.018;2023-07-31T03:12:50;99867.03;;;18.63;100.00
55679;BME280;41573;51.446;-2.018;2023-07-31T03:15:15;99859.59;;;18.57;100.00
55679;BME280;41573;51.446;-2.018;2023-07-31T03:17:40;99854.56;;;18.70;100.00
55679;BME280;41573;51.446;-2.018;2023-07-31T03:20:06;99862.66;;;18.62;100.00
55679;BME280;41573;51.446;-2.018;2023-07-31T03:22:32;99864.16;;;18.56;100.00
55679;BME280;41573;51.446;-2.018;2023-07-31T03:24:57;99874.72;;;18.50;100.00
55679;BME280;41573;51.446;-2.018;2023-07-31T03:27:22;99887.22;;;18.59;100.00
55679;BME280;41573;51.446;-2.018;2023-07-31T03:29:48;99884.69;;;18.57;100.00
55679;BME280;41573;51.446;-2.018;2023-07-31T03:32:15;99884.25;;;18.36;100.00
55679;BME280;41573;51.446;-2.018;2023-07-31T03:34:40;99890.19;;;18.48;100.00
55679;BME280;41573;51.446;-2.018;2023-07-31T03:37:05;99880.00;;;18.59;100.00
55679;BME280;41573;51.446;-2.018;2023-07-31T03:39:31;99876.13;;;18.62;100.00
55679;BME280;41573;51.446;-2.018;2023-07-31T03:41:56;99867.38;;;18.68;100.00
55679;BME280;41573;51.446;-2.018;2023-07-31T03:44:21;99872.41;;;18.55;100.00
55679;BME280;41573;51.446;-2.018;2023-07-31T03:46:47;99875.88;;;18.47;100.00
55679;BME280;41573;51.446;-2.018;2023-07-31T03:49:12;99881.97;;;18.49;100.00
55679;BME280;41573;51.446;-2.018;2023-07-31T03:51:38;99875.56;;;18.50;100.00
55679;BME280;41573;51.446;-2.018;2023-07-31T03:54:03;99870.00;;;18.52;100.00
55679;BME280;41573;51.446;-2.018;2023-07-31T03:56:28;99872.19;;;18.48;100.00
55679;BME280;41573;51.446;-2.018;2023-07-31T03:58:54;99873.03;;;18.49;100.00
55679;BME280;41573;51.446;-2.018;2023-07-31T04:01:19;99870.66;;;18.46;100.00
55679;BME280;41573;51.446;-2.018;2023-07-31T04:03:45;99879.06;;;18.42;100.00
55679;BME280;41573;51.446;-2.018;2023-07-31T04:06:10;99886.44;;;18.40;100.00
55679;BME280;41573;51.446;-2.018;2023-07-31T04:08:36;99883.75;;;18.40;100.00
55679;BME280;41573;51.446;-2.018;2023-07-31T04:11:01;99882.75;;;18.41;100.00
55679;BME280;41573;51.446;-2.018;2023-07-31T04:13:26;99894.31;;;18.25;100.00
55679;BME280;41573;51.446;-2.018;2023-07-31T04:15:54;99895.78;;;18.20;100.00
55679;BME280;41573;51.446;-2.018;2023-07-31T04:18:19;99892.59;;;18.24;100.00
55679;BME280;41573;51.446;-2.018;2023-07-31T04:20:45;99890.63;;;18.26;100.00
55679;BME280;41573;51.446;-2.018;2023-07-31T04:23:10;99894.53;;;18.32;100.00
55679;BME280;41573;51.446;-2.018;2023-07-31T04:25:36;99884.69;;;18.23;100.00
55679;BME280;41573;51.446;-2.018;2023-07-31T04:28:01;99888.09;;;18.25;100.00
55679;BME280;41573;51.446;-2.018;2023-07-31T04:30:27;99889.44;;;18.29;100.00
55679;BME280;41573;51.446;-2.018;2023-07-31T04:32:52;99889.13;;;18.32;100.00
55679;BME280;41573;51.446;-2.018;2023-07-31T04:35:18;99886.56;;;18.31;100.00
55679;BME280;41573;51.446;-2.018;2023-07-31T04:37:43;99882.69;;;18.25;100.00
55679;BME280;41573;51.446;-2.018;2023-07-31T04:40:11;99888.75;;;18.27;100.00
55679;BME280;41573;51.446;-2.018;2023-07-31T04:42:36;99884.00;;;18.21;100.00
55679;BME280;41573;51.446;-2.018;2023-07-31T04:45:02;99879.63;;;18.20;100.00
55679;BME280;41573;51.446;-2.018;2023-07-31T04:47:27;99878.13;;;18.25;100.00
55679;BME280;41573;51.446;-2.018;2023-07-31T04:49:53;99877.31;;;18.25;100.00
55679;BME280;41573;51.446;-2.018;2023-07-31T04:52:18;99877.66;;;18.30;100.00
55679;BME280;41573;51.446;-2.018;2023-07-31T04:54:43;99881.34;;;18.29;100.00
55679;BME280;41573;51.446;-2.018;2023-07-31T04:57:09;99872.19;;;18.22;100.00
55679;BME280;41573;51.446;-2.018;2023-07-31T04:59:34;99878.91;;;18.18;100.00
55679;BME280;41573;51.446;-2.018;2023-07-31T05:01:59;99873.06;;;18.22;100.00
55679;BME280;41573;51.446;-2.018;2023-07-31T05:04:25;99869.66;;;18.20;100.00
55679;BME280;41573;51.446;-2.018;2023-07-31T05:06:50;99885.38;;;18.25;100.00
55679;BME280;41573;51.446;-2.018;2023-07-31T05:09:15;99887.69;;;18.20;100.00
55679;BME280;41573;51.446;-2.018;2023-07-31T05:11:41;99879.63;;;18.20;100.00
55679;BME280;41573;51.446;-2.018;2023-07-31T05:14:08;99885.06;;;17.84;100.00
55679;BME280;41573;51.446;-2.018;2023-07-31T05:16:33;99889.44;;;17.85;100.00
55679;BME280;41573;51.446;-2.018;2023-07-31T05:18:59;99884.84;;;17.77;100.00
55679;BME280;41573;51.446;-2.018;2023-07-31T05:21:24;99893.28;;;17.82;100.00
55679;BME280;41573;51.446;-2.018;2023-07-31T05:23:49;99879.22;;;17.88;100.00
55679;BME280;41573;51.446;-2.018;2023-07-31T05:26:15;99876.06;;;17.93;100.00
55679;BME280;41573;51.446;-2.018;2023-07-31T05:28:40;99876.50;;;17.88;100.00
55679;BME280;41573;51.446;-2.018;2023-07-31T05:31:05;99876.84;;;17.85;100.00
55679;BME280;41573;51.446;-2.018;2023-07-31T05:33:32;99875.66;;;17.88;100.00
55679;BME280;41573;51.446;-2.018;2023-07-31T05:35:57;99870.41;;;18.04;100.00
55679;BME280;41573;51.446;-2.018;2023-07-31T05:38:23;99859.00;;;18.11;100.00
55679;BME280;41573;51.446;-2.018;2023-07-31T05:40:48;99861.75;;;18.19;100.00
55679;BME280;41573;51.446;-2.018;2023-07-31T05:43:14;99856.53;;;18.17;100.00
55679;BME280;41573;51.446;-2.018;2023-07-31T05:45:40;99863.06;;;18.15;100.00
55679;BME280;41573;51.446;-2.018;2023-07-31T05:48:05;99851.47;;;18.14;100.00
55679;BME280;41573;51.446;-2.018;2023-07-31T05:50:31;99855.84;;;18.15;100.00
55679;BME280;41573;51.446;-2.018;2023-07-31T05:52:56;99854.03;;;18.24;100.00
55679;BME280;41573;51.446;-2.018;2023-07-31T05:55:22;99851.69;;;18.29;100.00
55679;BME280;41573;51.446;-2.018;2023-07-31T05:57:48;99865.66;;;18.24;100.00
55679;BME280;41573;51.446;-2.018;2023-07-31T06:00:14;99875.94;;;18.21;100.00
55679;BME280;41573;51.446;-2.018;2023-07-31T06:02:39;99875.94;;;18.21;100.00
55679;BME280;41573;51.446;-2.018;2023-07-31T06:05:05;99875.59;;;18.24;100.00
55679;BME280;41573;51.446;-2.018;2023-07-31T06:07:32;99862.41;;;18.13;100.00
55679;BME280;41573;51.446;-2.018;2023-07-31T06:09:57;99852.28;;;18.15;100.00
55679;BME280;41573;51.446;-2.018;2023-07-31T06:12:28;99839.47;;;18.08;100.00
55679;BME280;41573;51.446;-2.018;2023-07-31T06:14:53;99835.50;;;18.21;100.00
55679;BME280;41573;51.446;-2.018;2023-07-31T06:17:19;99834.47;;;18.22;100.00
55679;BME280;41573;51.446;-2.018;2023-07-31T06:19:44;99841.56;;;18.23;100.00
55679;BME280;41573;51.446;-2.018;2023-07-31T06:22:09;99830.78;;;18.23;100.00
55679;BME280;41573;51.446;-2.018;2023-07-31T06:24:35;99831.50;;;18.33;100.00
55679;BME280;41573;51.446;-2.018;2023-07-31T06:27:00;99837.09;;;18.40;100.00
55679;BME280;41573;51.446;-2.018;2023-07-31T06:29:28;99835.56;;;18.37;100.00
55679;BME280;41573;51.446;-2.018;2023-07-31T06:31:53;99828.19;;;18.39;100.00
55679;BME280;41573;51.446;-2.018;2023-07-31T06:34:18;99836.16;;;18.49;100.00
55679;BME280;41573;51.446;-2.018;2023-07-31T06:36:44;99831.06;;;18.46;100.00
55679;BME280;41573;51.446;-2.018;2023-07-31T06:39:09;99835.28;;;18.49;100.00
55679;BME280;41573;51.446;-2.018;2023-07-31T06:41:34;99837.66;;;18.52;100.00
55679;BME280;41573;51.446;-2.018;2023-07-31T06:44:00;99854.31;;;18.47;100.00
55679;BME280;41573;51.446;-2.018;2023-07-31T06:46:25;99838.84;;;18.49;100.00
55679;BME280;41573;51.446;-2.018;2023-07-31T06:48:51;99832.75;;;18.47;100.00
55679;BME280;41573;51.446;-2.018;2023-07-31T06:51:16;99826.53;;;18.47;100.00
55679;BME280;41573;51.446;-2.018;2023-07-31T06:53:42;99814.50;;;18.33;100.00
55679;BME280;41573;51.446;-2.018;2023-07-31T06:56:10;99811.38;;;18.54;100.00
55679;BME280;41573;51.446;-2.018;2023-07-31T06:58:35;99803.63;;;18.59;100.00
55679;BME280;41573;51.446;-2.018;2023-07-31T07:01:01;99820.50;;;18.61;100.00
55679;BME280;41573;51.446;-2.018;2023-07-31T07:03:27;99816.44;;;18.57;100.00
55679;BME280;41573;51.446;-2.018;2023-07-31T07:05:52;99815.94;;;18.61;100.00
55679;BME280;41573;51.446;-2.018;2023-07-31T07:08:18;99812.34;;;18.44;100.00
55679;BME280;41573;51.446;-2.018;2023-07-31T07:10:43;99815.78;;;18.55;100.00
55679;BME280;41573;51.446;-2.018;2023-07-31T07:13:08;99823.88;;;18.55;100.00
55679;BME280;41573;51.446;-2.018;2023-07-31T07:15:34;99827.88;;;18.51;100.00
55679;BME280;41573;51.446;-2.018;2023-07-31T07:18:00;99823.34;;;18.51;100.00
55679;BME280;41573;51.446;-2.018;2023-07-31T07:20:25;99814.09;;;18.54;100.00
55679;BME280;41573;51.446;-2.018;2023-07-31T07:22:51;99812.00;;;18.48;100.00
55679;BME280;41573;51.446;-2.018;2023-07-31T07:25:16;99812.69;;;18.41;100.00
55679;BME280;41573;51.446;-2.018;2023-07-31T07:27:41;99820.28;;;18.46;100.00
55679;BME280;41573;51.446;-2.018;2023-07-31T07:30:07;99819.28;;;18.47;100.00
55679;BME280;41573;51.446;-2.018;2023-07-31T07:32:33;99811.50;;;18.44;100.00
55679;BME280;41573;51.446;-2.018;2023-07-31T07:34:58;99809.34;;;18.56;100.00
55679;BME280;41573;51.446;-2.018;2023-07-31T07:37:23;99807.69;;;18.55;100.00
55679;BME280;41573;51.446;-2.018;2023-07-31T07:39:49;99782.56;;;18.54;100.00
55679;BME280;41573;51.446;-2.018;2023-07-31T07:42:14;99783.75;;;18.60;100.00
55679;BME280;41573;51.446;-2.018;2023-07-31T07:44:39;99785.44;;;18.61;100.00
55679;BME280;41573;51.446;-2.018;2023-07-31T07:47:05;99784.44;;;18.70;100.00
55679;BME280;41573;51.446;-2.018;2023-07-31T07:49:34;99785.47;;;18.69;100.00
55679;BME280;41573;51.446;-2.018;2023-07-31T07:52:00;99784.16;;;18.73;100.00
55679;BME280;41573;51.446;-2.018;2023-07-31T07:54:25;99785.47;;;18.77;100.00
55679;BME280;41573;51.446;-2.018;2023-07-31T07:56:51;99772.00;;;18.86;100.00
55679;BME280;41573;51.446;-2.018;2023-07-31T07:59:16;99788.53;;;18.83;100.00
55679;BME280;41573;51.446;-2.018;2023-07-31T08:01:42;99776.03;;;18.82;100.00
55679;BME280;41573;51.446;-2.018;2023-07-31T08:04:08;99788.53;;;18.83;100.00
55679;BME280;41573;51.446;-2.018;2023-07-31T08:06:33;99779.25;;;18.77;100.00
55679;BME280;41573;51.446;-2.018;2023-07-31T08:08:59;99780.44;;;18.83;100.00
55679;BME280;41573;51.446;-2.018;2023-07-31T08:11:24;99793.94;;;18.83;100.00
55679;BME280;41573;51.446;-2.018;2023-07-31T08:13:50;99792.91;;;18.75;100.00
55679;BME280;41573;51.446;-2.018;2023-07-31T08:16:15;99802.31;;;18.71;100.00
55679;BME280;41573;51.446;-2.018;2023-07-31T08:18:41;99780.56;;;18.56;100.00
55679;BME280;41573;51.446;-2.018;2023-07-31T08:21:07;99772.94;;;18.43;100.00
55679;BME280;41573;51.446;-2.018;2023-07-31T08:23:33;99770.38;;;18.42;100.00
55679;BME280;41573;51.446;-2.018;2023-07-31T08:25:58;99764.69;;;18.45;100.00
55679;BME280;41573;51.446;-2.018;2023-07-31T08:28:23;99764.00;;;18.43;100.00
55679;BME280;41573;51.446;-2.018;2023-07-31T08:30:49;99762.66;;;18.47;100.00
55679;BME280;41573;51.446;-2.018;2023-07-31T08:33:15;99753.56;;;18.48;100.00
55679;BME280;41573;51.446;-2.018;2023-07-31T08:35:41;99736.22;;;18.51;100.00
55679;BME280;41573;51.446;-2.018;2023-07-31T08:38:06;99734.88;;;18.55;100.00
55679;BME280;41573;51.446;-2.018;2023-07-31T08:40:32;99727.47;;;18.57;100.00
55679;BME280;41573;51.446;-2.018;2023-07-31T08:43:00;99725.44;;;18.59;100.00
55679;BME280;41573;51.446;-2.018;2023-07-31T08:45:28;99716.00;;;18.63;100.00
55679;BME280;41573;51.446;-2.018;2023-07-31T08:47:55;99722.44;;;18.62;100.00
55679;BME280;41573;51.446;-2.018;2023-07-31T08:50:21;99728.50;;;18.72;100.00
55679;BME280;41573;51.446;-2.018;2023-07-31T08:52:48;99746.22;;;18.83;100.00
55679;BME280;41573;51.446;-2.018;2023-07-31T08:55:14;99764.66;;;19.12;100.00
55679;BME280;41573;51.446;-2.018;2023-07-31T08:57:41;99763.66;;;19.22;100.00
55679;BME280;41573;51.446;-2.018;2023-07-31T09:00:08;99752.16;;;19.11;100.00
55679;BME280;41573;51.446;-2.018;2023-07-31T09:02:46;99740.38;;;19.29;100.00
55679;BME280;41573;51.446;-2.018;2023-07-31T09:05:14;99738.69;;;19.28;100.00
55679;BME280;41573;51.446;-2.018;2023-07-31T09:07:40;99758.22;;;19.30;100.00
55679;BME280;41573;51.446;-2.018;2023-07-31T09:10:11;99749.47;;;19.28;100.00
55679;BME280;41573;51.446;-2.018;2023-07-31T09:12:37;99754.22;;;19.18;100.00
55679;BME280;41573;51.446;-2.018;2023-07-31T09:15:04;99755.72;;;19.20;100.00
55679;BME280;41573;51.446;-2.018;2023-07-31T09:17:34;99762.78;;;18.97;100.00
55679;BME280;41573;51.446;-2.018;2023-07-31T09:20:18;99757.59;;;19.03;100.00
55679;BME280;41573;51.446;-2.018;2023-07-31T09:22:45;99756.22;;;18.99;100.00
55679;BME280;41573;51.446;-2.018;2023-07-31T09:25:24;99740.19;;;19.06;100.00
55679;BME280;41573;51.446;-2.018;2023-07-31T09:27:53;99745.94;;;19.03;100.00
55679;BME280;41573;51.446;-2.018;2023-07-31T09:30:19;99745.28;;;19.09;100.00
55679;BME280;41573;51.446;-2.018;2023-07-31T09:32:45;99754.03;;;19.11;100.00
55679;BME280;41573;51.446;-2.018;2023-07-31T09:35:19;99755.22;;;19.08;100.00
55679;BME280;41573;51.446;-2.018;2023-07-31T09:37:53;99746.28;;;19.08;100.00
55679;BME280;41573;51.446;-2.018;2023-07-31T09:42:57;99739.50;;;18.95;100.00
55679;BME280;41573;51.446;-2.018;2023-07-31T09:45:24;99744.09;;;18.95;100.00
55679;BME280;41573;51.446;-2.018;2023-07-31T09:47:50;99743.72;;;18.90;100.00
55679;BME280;41573;51.446;-2.018;2023-07-31T09:50:16;99720.97;;;19.01;100.00
55679;BME280;41573;51.446;-2.018;2023-07-31T09:52:41;99733.94;;;18.97;100.00
55679;BME280;41573;51.446;-2.018;2023-07-31T09:55:08;99719.63;;;18.97;100.00
55679;BME280;41573;51.446;-2.018;2023-07-31T09:57:34;99734.31;;;19.02;100.00
55679;BME280;41573;51.446;-2.018;2023-07-31T09:59:59;99734.81;;;18.89;100.00
55679;BME280;41573;51.446;-2.018;2023-07-31T10:02:26;99740.88;;;19.00;100.00
55679;BME280;41573;51.446;-2.018;2023-07-31T10:04:57;99733.31;;;19.03;100.00
55679;BME280;41573;51.446;-2.018;2023-07-31T10:07:25;99736.31;;;19.00;100.00
55679;BME280;41573;51.446;-2.018;2023-07-31T10:09:55;99727.56;;;19.06;100.00
55679;BME280;41573;51.446;-2.018;2023-07-31T10:12:26;99760.78;;;19.15;100.00
55679;BME280;41573;51.446;-2.018;2023-07-31T10:14:54;99751.16;;;19.12;100.00
55679;BME280;41573;51.446;-2.018;2023-07-31T10:17:20;99774.94;;;19.17;100.00
55679;BME280;41573;51.446;-2.018;2023-07-31T10:19:46;99777.97;;;19.14;100.00
55679;BME280;41573;51.446;-2.018;2023-07-31T10:22:13;99782.38;;;19.15;100.00
55679;BME280;41573;51.446;-2.018;2023-07-31T10:24:39;99782.19;;;19.08;100.00
55679;BME280;41573;51.446;-2.018;2023-07-31T10:27:06;99780.50;;;19.07;100.00
55679;BME280;41573;51.446;-2.018;2023-07-31T10:29:32;99788.59;;;18.99;100.00
55679;BME280;41573;51.446;-2.018;2023-07-31T10:31:59;99775.44;;;19.04;100.00
55679;BME280;41573;51.446;-2.018;2023-07-31T10:34:25;99764.31;;;19.07;100.00
55679;BME280;41573;51.446;-2.018;2023-07-31T10:37:27;99766.50;;;19.04;100.00
55679;BME280;41573;51.446;-2.018;2023-07-31T10:40:17;99802.75;;;19.01;100.00
55679;BME280;41573;51.446;-2.018;2023-07-31T10:45:10;99780.84;;;18.96;100.00
55679;BME280;41573;51.446;-2.018;2023-07-31T10:50:19;99780.50;;;18.99;100.00
55679;BME280;41573;51.446;-2.018;2023-07-31T10:52:53;99778.47;;;18.93;100.00
55679;BME280;41573;51.446;-2.018;2023-07-31T10:58:08;99780.16;;;18.94;100.00
55679;BME280;41573;51.446;-2.018;2023-07-31T11:00:37;99772.34;;;19.90;100.00
55679;BME280;41573;51.446;-2.018;2023-07-31T11:03:08;99770.22;;;19.03;100.00
55679;BME280;41573;51.446;-2.018;2023-07-31T11:05:59;99782.50;;;18.89;100.00
55679;BME280;41573;51.446;-2.018;2023-07-31T11:08:28;99797.31;;;18.85;100.00
55679;BME280;41573;51.446;-2.018;2023-07-31T11:13:33;99787.53;;;18.84;100.00
55679;BME280;41573;51.446;-2.018;2023-07-31T11:15:59;99787.16;;;18.70;100.00
55679;BME280;41573;51.446;-2.018;2023-07-31T11:18:26;99792.56;;;18.78;100.00
55679;BME280;41573;51.446;-2.018;2023-07-31T11:20:52;99790.03;;;18.77;100.00
55679;BME280;41573;51.446;-2.018;2023-07-31T11:23:19;99778.41;;;18.76;100.00
55679;BME280;41573;51.446;-2.018;2023-07-31T11:25:45;99779.06;;;18.70;100.00
55679;BME280;41573;51.446;-2.018;2023-07-31T11:28:12;99770.13;;;18.70;100.00
55679;BME280;41573;51.446;-2.018;2023-07-31T11:30:39;99749.22;;;18.72;100.00
55679;BME280;41573;51.446;-2.018;2023-07-31T11:33:07;99740.31;;;18.80;100.00
55679;BME280;41573;51.446;-2.018;2023-07-31T11:35:34;99740.31;;;18.80;100.00
55679;BME280;41573;51.446;-2.018;2023-07-31T11:38:00;99735.59;;;18.73;100.00
55679;BME280;41573;51.446;-2.018;2023-07-31T11:40:25;99731.84;;;18.58;100.00
55679;BME280;41573;51.446;-2.018;2023-07-31T11:42:58;99735.56;;;18.57;100.00
55679;BME280;41573;51.446;-2.018;2023-07-31T11:45:25;99749.38;;;18.54;100.00
55679;BME280;41573;51.446;-2.018;2023-07-31T11:47:55;99742.97;;;18.55;100.00
55679;BME280;41573;51.446;-2.018;2023-07-31T11:50:21;99741.63;;;18.51;100.00
55679;BME280;41573;51.446;-2.018;2023-07-31T11:52:48;99752.22;;;18.44;100.00
55679;BME280;41573;51.446;-2.018;2023-07-31T11:55:17;99745.44;;;19.32;100.00
55679;BME280;41573;51.446;-2.018;2023-07-31T11:57:43;99738.91;;;18.42;100.00
55679;BME280;41573;51.446;-2.018;2023-07-31T12:00:11;99733.13;;;18.37;100.00
55679;BME280;41573;51.446;-2.018;2023-07-31T12:02:38;99721.00;;;18.33;100.00
55679;BME280;41573;51.446;-2.018;2023-07-31T12:05:11;99693.00;;;18.26;100.00
55679;BME280;41573;51.446;-2.018;2023-07-31T12:07:47;99689.69;;;18.32;100.00
55679;BME280;41573;51.446;-2.018;2023-07-31T12:10:30;99687.28;;;18.21;100.00
55679;BME280;41573;51.446;-2.018;2023-07-31T12:13:10;99711.19;;;18.16;100.00
55679;BME280;41573;51.446;-2.018;2023-07-31T12:15:40;99722.63;;;18.09;100.00
55679;BME280;41573;51.446;-2.018;2023-07-31T12:18:11;99714.34;;;18.03;100.00
55679;BME280;41573;51.446;-2.018;2023-07-31T12:20:44;99704.38;;;18.03;100.00
55679;BME280;41573;51.446;-2.018;2023-07-31T12:25:40;99671.91;;;18.97;100.00
55679;BME280;41573;51.446;-2.018;2023-07-31T12:28:06;99667.38;;;18.05;100.00
55679;BME280;41573;51.446;-2.018;2023-07-31T12:30:37;99685.03;;;18.00;100.00
55679;BME280;41573;51.446;-2.018;2023-07-31T12:33:13;99737.28;;;17.89;100.00
55679;BME280;41573;51.446;-2.018;2023-07-31T12:35:48;99731.41;;;17.85;100.00
55679;BME280;41573;51.446;-2.018;2023-07-31T12:38:14;99732.19;;;17.78;100.00
55679;BME280;41573;51.446;-2.018;2023-07-31T12:40:41;99680.31;;;17.67;100.00
55679;BME280;41573;51.446;-2.018;2023-07-31T12:43:07;99655.06;;;17.68;100.00
55679;BME280;41573;51.446;-2.018;2023-07-31T12:45:34;99720.00;;;17.65;100.00
55679;BME280;41573;51.446;-2.018;2023-07-31T12:48:00;99729.94;;;17.65;100.00
55679;BME280;41573;51.446;-2.018;2023-07-31T12:50:26;99723.38;;;17.67;100.00
55679;BME280;41573;51.446;-2.018;2023-07-31T12:52:53;99771.00;;;17.67;100.00
55679;BME280;41573;51.446;-2.018;2023-07-31T12:55:18;99797.78;;;17.68;100.00
55679;BME280;41573;51.446;-2.018;2023-07-31T12:57:44;99789.63;;;17.60;100.00
55679;BME280;41573;51.446;-2.018;2023-07-31T13:00:10;99808.97;;;17.55;100.00